Quemado, New Mexico
Current Conditions -  °F | °C
As of 4:15 AM on Saturday 01 Nov 2014 (Local Time) from KJTC Reporting Station
Clear Clear  
Wind Chill: 55°   Ceiling: Unl
Heat Index: 55°   Visibility: 10mi
Dew Point: 41°   Wind: 33mph
Humidity: 58%   Direction: 190°S
Pressure: 30.1"   Gusts: 41mph
Location:  34.34°N, 108.49°W
Report Text: KJTC 011015Z AUTO 19029G36KT 10SM CLR 13/05 A3010 RMK AO2
Loading
Personal Weather Stations






























Interactive Weather Map
Tropical Storm Tracking
New forecast layout! Learn more

10-Day Weather Forecast

Advertisements
Track Severe Weather on mobile